sensor_id;sensor_type;location;lat;lon;timestamp;P1;durP1;ratioP1;P2;durP2;ratioP2
75191;SDS011;63771;52.580;9.734;2023-04-25T00:00:17;8.10;;;3.90;;
75191;SDS011;63771;52.580;9.734;2023-04-25T00:02:43;9.85;;;3.55;;
75191;SDS011;63771;52.580;9.734;2023-04-25T00:05:08;9.63;;;4.65;;
75191;SDS011;63771;52.580;9.734;2023-04-25T00:07:34;5.45;;;4.13;;
75191;SDS011;63771;52.580;9.734;2023-04-25T00:09:59;4.75;;;3.85;;
75191;SDS011;63771;52.580;9.734;2023-04-25T00:12:25;6.93;;;4.57;;
75191;SDS011;63771;52.580;9.734;2023-04-25T00:14:53;8.32;;;4.00;;
75191;SDS011;63771;52.580;9.734;2023-04-25T00:17:18;9.68;;;4.55;;
75191;SDS011;63771;52.580;9.734;2023-04-25T00:19:44;7.15;;;4.03;;
75191;SDS011;63771;52.580;9.734;2023-04-25T00:22:11;6.97;;;4.75;;
75191;SDS011;63771;52.580;9.734;2023-04-25T00:24:36;6.38;;;5.00;;
75191;SDS011;63771;52.580;9.734;2023-04-25T00:27:02;8.13;;;4.15;;
75191;SDS011;63771;52.580;9.734;2023-04-25T00:29:27;9.00;;;4.13;;
75191;SDS011;63771;52.580;9.734;2023-04-25T00:31:52;5.23;;;3.87;;
75191;SDS011;63771;52.580;9.734;2023-04-25T00:34:18;7.13;;;4.03;;
75191;SDS011;63771;52.580;9.734;2023-04-25T00:36:43;7.87;;;4.80;;
75191;SDS011;63771;52.580;9.734;2023-04-25T00:39:08;6.83;;;4.67;;
75191;SDS011;63771;52.580;9.734;2023-04-25T00:41:34;10.50;;;4.47;;
75191;SDS011;63771;52.580;9.734;2023-04-25T00:43:59;12.20;;;4.38;;
75191;SDS011;63771;52.580;9.734;2023-04-25T00:46:25;9.73;;;4.95;;
75191;SDS011;63771;52.580;9.734;2023-04-25T00:48:51;9.40;;;4.63;;
75191;SDS011;63771;52.580;9.734;2023-04-25T00:51:16;8.77;;;4.17;;
75191;SDS011;63771;52.580;9.734;2023-04-25T00:53:45;11.57;;;3.88;;
75191;SDS011;63771;52.580;9.734;2023-04-25T00:56:12;8.13;;;4.70;;
75191;SDS011;63771;52.580;9.734;2023-04-25T00:58:37;8.20;;;3.60;;
75191;SDS011;63771;52.580;9.734;2023-04-25T01:01:03;5.75;;;3.92;;
75191;SDS011;63771;52.580;9.734;2023-04-25T01:03:30;12.05;;;4.63;;
75191;SDS011;63771;52.580;9.734;2023-04-25T01:05:57;10.25;;;3.83;;
75191;SDS011;63771;52.580;9.734;2023-04-25T01:08:24;10.48;;;4.63;;
75191;SDS011;63771;52.580;9.734;2023-04-25T01:10:53;6.03;;;4.22;;
75191;SDS011;63771;52.580;9.734;2023-04-25T01:13:18;11.07;;;3.97;;
75191;SDS011;63771;52.580;9.734;2023-04-25T01:15:43;7.87;;;3.83;;
75191;SDS011;63771;52.580;9.734;2023-04-25T01:18:09;9.02;;;3.92;;
75191;SDS011;63771;52.580;9.734;2023-04-25T01:20:35;8.43;;;4.35;;
75191;SDS011;63771;52.580;9.734;2023-04-25T01:23:03;7.97;;;4.32;;
75191;SDS011;63771;52.580;9.734;2023-04-25T01:25:30;5.82;;;4.25;;
75191;SDS011;63771;52.580;9.734;2023-04-25T01:27:56;4.45;;;4.03;;
75191;SDS011;63771;52.580;9.734;2023-04-25T01:30:23;11.50;;;4.13;;
75191;SDS011;63771;52.580;9.734;2023-04-25T01:32:50;12.95;;;4.72;;
75191;SDS011;63771;52.580;9.734;2023-04-25T01:35:16;11.50;;;5.03;;
75191;SDS011;63771;52.580;9.734;2023-04-25T01:37:42;7.83;;;4.53;;
75191;SDS011;63771;52.580;9.734;2023-04-25T01:40:08;15.43;;;5.07;;
75191;SDS011;63771;52.580;9.734;2023-04-25T01:42:35;13.32;;;4.88;;
75191;SDS011;63771;52.580;9.734;2023-04-25T01:45:03;18.63;;;5.45;;
75191;SDS011;63771;52.580;9.734;2023-04-25T01:47:28;7.80;;;5.40;;
75191;SDS011;63771;52.580;9.734;2023-04-25T01:49:54;10.75;;;4.78;;
75191;SDS011;63771;52.580;9.734;2023-04-25T01:52:19;8.02;;;5.05;;
75191;SDS011;63771;52.580;9.734;2023-04-25T01:54:45;9.15;;;4.53;;
75191;SDS011;63771;52.580;9.734;2023-04-25T01:57:11;13.25;;;5.00;;
75191;SDS011;63771;52.580;9.734;2023-04-25T01:59:36;11.13;;;4.82;;
75191;SDS011;63771;52.580;9.734;2023-04-25T02:02:02;15.80;;;5.32;;
75191;SDS011;63771;52.580;9.734;2023-04-25T02:04:31;14.68;;;5.07;;
75191;SDS011;63771;52.580;9.734;2023-04-25T02:06:56;10.25;;;4.43;;
75191;SDS011;63771;52.580;9.734;2023-04-25T02:09:22;7.60;;;4.53;;
75191;SDS011;63771;52.580;9.734;2023-04-25T02:11:47;10.73;;;4.22;;
75191;SDS011;63771;52.580;9.734;2023-04-25T02:14:13;6.05;;;3.47;;
75191;SDS011;63771;52.580;9.734;2023-04-25T02:16:38;12.48;;;4.95;;
75191;SDS011;63771;52.580;9.734;2023-04-25T02:19:03;10.15;;;4.25;;
75191;SDS011;63771;52.580;9.734;2023-04-25T02:21:29;9.35;;;3.70;;
75191;SDS011;63771;52.580;9.734;2023-04-25T02:23:55;9.38;;;3.95;;
75191;SDS011;63771;52.580;9.734;2023-04-25T02:26:20;6.35;;;3.17;;
75191;SDS011;63771;52.580;9.734;2023-04-25T02:28:46;6.37;;;3.17;;
75191;SDS011;63771;52.580;9.734;2023-04-25T02:31:11;12.50;;;4.20;;
75191;SDS011;63771;52.580;9.734;2023-04-25T02:33:36;4.43;;;3.30;;
75191;SDS011;63771;52.580;9.734;2023-04-25T02:36:02;10.10;;;3.43;;
75191;SDS011;63771;52.580;9.734;2023-04-25T02:38:28;14.02;;;3.30;;
75191;SDS011;63771;52.580;9.734;2023-04-25T02:40:53;8.77;;;3.30;;
75191;SDS011;63771;52.580;9.734;2023-04-25T02:43:18;16.03;;;3.93;;
75191;SDS011;63771;52.580;9.734;2023-04-25T02:45:44;6.47;;;4.33;;
75191;SDS011;63771;52.580;9.734;2023-04-25T02:48:09;16.00;;;3.63;;
75191;SDS011;63771;52.580;9.734;2023-04-25T02:50:35;16.88;;;3.50;;
75191;SDS011;63771;52.580;9.734;2023-04-25T02:53:00;12.00;;;3.60;;
75191;SDS011;63771;52.580;9.734;2023-04-25T02:55:25;8.60;;;2.77;;
75191;SDS011;63771;52.580;9.734;2023-04-25T02:57:51;11.27;;;3.42;;
75191;SDS011;63771;52.580;9.734;2023-04-25T03:00:16;10.98;;;3.72;;
75191;SDS011;63771;52.580;9.734;2023-04-25T03:02:41;15.73;;;4.10;;
75191;SDS011;63771;52.580;9.734;2023-04-25T03:05:07;3.67;;;2.80;;
75191;SDS011;63771;52.580;9.734;2023-04-25T03:07:32;10.02;;;3.65;;
75191;SDS011;63771;52.580;9.734;2023-04-25T03:09:57;15.73;;;4.00;;
75191;SDS011;63771;52.580;9.734;2023-04-25T03:12:23;10.27;;;3.28;;
75191;SDS011;63771;52.580;9.734;2023-04-25T03:14:48;19.07;;;4.60;;
75191;SDS011;63771;52.580;9.734;2023-04-25T03:17:13;12.03;;;3.87;;
75191;SDS011;63771;52.580;9.734;2023-04-25T03:19:39;9.13;;;3.50;;
75191;SDS011;63771;52.580;9.734;2023-04-25T03:22:04;9.77;;;3.57;;
75191;SDS011;63771;52.580;9.734;2023-04-25T03:24:29;9.63;;;3.55;;
75191;SDS011;63771;52.580;9.734;2023-04-25T03:26:55;9.27;;;3.67;;
75191;SDS011;63771;52.580;9.734;2023-04-25T03:29:20;9.83;;;3.23;;
75191;SDS011;63771;52.580;9.734;2023-04-25T03:31:49;11.32;;;3.97;;
75191;SDS011;63771;52.580;9.734;2023-04-25T03:34:14;15.90;;;3.78;;
75191;SDS011;63771;52.580;9.734;2023-04-25T03:36:40;13.85;;;3.53;;
75191;SDS011;63771;52.580;9.734;2023-04-25T03:39:05;15.30;;;3.70;;
75191;SDS011;63771;52.580;9.734;2023-04-25T03:41:31;15.07;;;5.35;;
75191;SDS011;63771;52.580;9.734;2023-04-25T03:43:56;9.70;;;3.80;;
75191;SDS011;63771;52.580;9.734;2023-04-25T03:46:21;11.88;;;3.05;;
75191;SDS011;63771;52.580;9.734;2023-04-25T03:48:47;12.40;;;4.07;;
75191;SDS011;63771;52.580;9.734;2023-04-25T03:51:12;12.57;;;3.55;;
75191;SDS011;63771;52.580;9.734;2023-04-25T03:53:37;10.37;;;3.60;;
75191;SDS011;63771;52.580;9.734;2023-04-25T03:56:03;16.63;;;5.10;;
75191;SDS011;63771;52.580;9.734;2023-04-25T03:58:28;15.40;;;3.30;;
75191;SDS011;63771;52.580;9.734;2023-04-25T04:00:54;13.40;;;3.60;;
75191;SDS011;63771;52.580;9.734;2023-04-25T04:03:19;15.03;;;3.90;;
75191;SDS011;63771;52.580;9.734;2023-04-25T04:05:45;11.50;;;3.83;;
75191;SDS011;63771;52.580;9.734;2023-04-25T04:08:11;9.18;;;4.18;;
75191;SDS011;63771;52.580;9.734;2023-04-25T04:10:36;11.55;;;3.80;;
75191;SDS011;63771;52.580;9.734;2023-04-25T04:13:02;15.63;;;3.90;;
75191;SDS011;63771;52.580;9.734;2023-04-25T04:15:27;18.95;;;4.38;;
75191;SDS011;63771;52.580;9.734;2023-04-25T04:17:53;12.82;;;3.28;;
75191;SDS011;63771;52.580;9.734;2023-04-25T04:20:19;11.35;;;3.50;;
75191;SDS011;63771;52.580;9.734;2023-04-25T04:22:44;14.80;;;3.47;;
75191;SDS011;63771;52.580;9.734;2023-04-25T04:25:09;13.10;;;3.10;;
75191;SDS011;63771;52.580;9.734;2023-04-25T04:27:36;9.20;;;3.67;;
75191;SDS011;63771;52.580;9.734;2023-04-25T04:30:02;15.93;;;4.47;;
75191;SDS011;63771;52.580;9.734;2023-04-25T04:32:28;7.43;;;3.50;;
75191;SDS011;63771;52.580;9.734;2023-04-25T04:34:55;8.13;;;3.47;;
75191;SDS011;63771;52.580;9.734;2023-04-25T04:37:20;9.95;;;3.47;;
75191;SDS011;63771;52.580;9.734;2023-04-25T04:39:46;11.18;;;3.20;;
75191;SDS011;63771;52.580;9.734;2023-04-25T04:42:12;10.82;;;3.47;;
75191;SDS011;63771;52.580;9.734;2023-04-25T04:44:38;14.80;;;4.55;;
75191;SDS011;63771;52.580;9.734;2023-04-25T04:47:04;11.20;;;3.35;;
75191;SDS011;63771;52.580;9.734;2023-04-25T04:49:31;16.50;;;3.38;;
75191;SDS011;63771;52.580;9.734;2023-04-25T04:51:56;13.70;;;3.97;;
75191;SDS011;63771;52.580;9.734;2023-04-25T04:54:21;12.27;;;3.13;;
75191;SDS011;63771;52.580;9.734;2023-04-25T04:56:47;10.73;;;3.20;;
75191;SDS011;63771;52.580;9.734;2023-04-25T04:59:12;12.37;;;4.07;;
75191;SDS011;63771;52.580;9.734;2023-04-25T05:01:37;17.67;;;3.57;;
75191;SDS011;63771;52.580;9.734;2023-04-25T05:04:03;9.83;;;3.63;;
75191;SDS011;63771;52.580;9.734;2023-04-25T05:06:28;22.58;;;3.95;;
75191;SDS011;63771;52.580;9.734;2023-04-25T05:08:55;11.93;;;3.08;;
75191;SDS011;63771;52.580;9.734;2023-04-25T05:11:21;9.77;;;3.08;;
75191;SDS011;63771;52.580;9.734;2023-04-25T05:13:47;12.45;;;3.40;;
75191;SDS011;63771;52.580;9.734;2023-04-25T05:16:12;13.30;;;3.40;;
75191;SDS011;63771;52.580;9.734;2023-04-25T05:18:38;11.90;;;3.28;;
75191;SDS011;63771;52.580;9.734;2023-04-25T05:21:04;14.45;;;3.97;;
75191;SDS011;63771;52.580;9.734;2023-04-25T05:23:30;12.65;;;3.72;;
75191;SDS011;63771;52.580;9.734;2023-04-25T05:25:57;14.75;;;3.38;;
75191;SDS011;63771;52.580;9.734;2023-04-25T05:28:22;7.77;;;2.83;;
75191;SDS011;63771;52.580;9.734;2023-04-25T05:30:47;11.20;;;2.90;;
75191;SDS011;63771;52.580;9.734;2023-04-25T05:33:13;9.98;;;3.17;;
75191;SDS011;63771;52.580;9.734;2023-04-25T05:35:38;12.50;;;4.05;;
75191;SDS011;63771;52.580;9.734;2023-04-25T05:38:04;8.52;;;3.15;;
75191;SDS011;63771;52.580;9.734;2023-04-25T05:40:29;9.47;;;2.80;;
75191;SDS011;63771;52.580;9.734;2023-04-25T05:42:54;11.73;;;3.17;;
75191;SDS011;63771;52.580;9.734;2023-04-25T05:45:20;10.97;;;3.30;;
75191;SDS011;63771;52.580;9.734;2023-04-25T05:47:45;14.33;;;4.13;;
75191;SDS011;63771;52.580;9.734;2023-04-25T05:50:10;15.52;;;4.65;;
75191;SDS011;63771;52.580;9.734;2023-04-25T05:52:36;14.98;;;3.83;;
75191;SDS011;63771;52.580;9.734;2023-04-25T05:55:01;18.23;;;4.03;;
75191;SDS011;63771;52.580;9.734;2023-04-25T05:57:27;8.93;;;2.95;;
75191;SDS011;63771;52.580;9.734;2023-04-25T05:59:52;10.52;;;3.47;;
75191;SDS011;63771;52.580;9.734;2023-04-25T06:02:19;10.20;;;3.42;;
75191;SDS011;63771;52.580;9.734;2023-04-25T06:04:46;13.45;;;3.40;;
75191;SDS011;63771;52.580;9.734;2023-04-25T06:07:12;11.75;;;2.92;;
75191;SDS011;63771;52.580;9.734;2023-04-25T06:09:38;15.05;;;3.80;;
75191;SDS011;63771;52.580;9.734;2023-04-25T06:12:05;10.80;;;3.50;;
75191;SDS011;63771;52.580;9.734;2023-04-25T06:14:30;6.03;;;2.92;;
75191;SDS011;63771;52.580;9.734;2023-04-25T06:16:56;9.25;;;3.85;;
75191;SDS011;63771;52.580;9.734;2023-04-25T06:19:21;7.82;;;3.60;;
75191;SDS011;63771;52.580;9.734;2023-04-25T06:21:46;6.80;;;2.70;;
75191;SDS011;63771;52.580;9.734;2023-04-25T06:24:12;14.93;;;3.43;;
75191;SDS011;63771;52.580;9.734;2023-04-25T06:26:37;10.47;;;3.63;;
75191;SDS011;63771;52.580;9.734;2023-04-25T06:29:02;14.07;;;3.10;;
75191;SDS011;63771;52.580;9.734;2023-04-25T06:31:28;13.48;;;3.20;;
75191;SDS011;63771;52.580;9.734;2023-04-25T06:33:54;15.30;;;3.20;;
75191;SDS011;63771;52.580;9.734;2023-04-25T06:36:20;9.15;;;3.20;;
75191;SDS011;63771;52.580;9.734;2023-04-25T06:38:50;8.07;;;3.47;;
75191;SDS011;63771;52.580;9.734;2023-04-25T06:41:16;7.32;;;2.70;;
75191;SDS011;63771;52.580;9.734;2023-04-25T06:43:42;11.23;;;3.27;;
75191;SDS011;63771;52.580;9.734;2023-04-25T06:46:07;11.83;;;2.97;;
75191;SDS011;63771;52.580;9.734;2023-04-25T06:48:32;10.53;;;2.50;;
75191;SDS011;63771;52.580;9.734;2023-04-25T06:50:58;8.10;;;3.28;;
75191;SDS011;63771;52.580;9.734;2023-04-25T06:53:24;7.90;;;3.05;;
75191;SDS011;63771;52.580;9.734;2023-04-25T06:55:49;9.07;;;2.72;;
75191;SDS011;63771;52.580;9.734;2023-04-25T06:58:15;13.68;;;3.70;;
75191;SDS011;63771;52.580;9.734;2023-04-25T07:00:40;8.75;;;2.78;;
75191;SDS011;63771;52.580;9.734;2023-04-25T07:03:05;7.40;;;3.07;;
75191;SDS011;63771;52.580;9.734;2023-04-25T07:05:31;8.03;;;2.47;;
75191;SDS011;63771;52.580;9.734;2023-04-25T07:07:56;17.53;;;3.47;;
75191;SDS011;63771;52.580;9.734;2023-04-25T07:10:22;12.55;;;3.90;;
75191;SDS011;63771;52.580;9.734;2023-04-25T07:12:47;13.23;;;3.10;;
75191;SDS011;63771;52.580;9.734;2023-04-25T07:15:13;8.80;;;2.60;;
75191;SDS011;63771;52.580;9.734;2023-04-25T07:17:38;10.35;;;2.88;;
75191;SDS011;63771;52.580;9.734;2023-04-25T07:20:04;12.43;;;2.77;;
75191;SDS011;63771;52.580;9.734;2023-04-25T07:22:31;7.25;;;2.45;;
75191;SDS011;63771;52.580;9.734;2023-04-25T07:24:57;2.83;;;2.22;;
75191;SDS011;63771;52.580;9.734;2023-04-25T07:27:22;7.30;;;3.47;;
75191;SDS011;63771;52.580;9.734;2023-04-25T07:29:47;11.37;;;2.67;;
75191;SDS011;63771;52.580;9.734;2023-04-25T07:32:12;5.40;;;3.03;;
75191;SDS011;63771;52.580;9.734;2023-04-25T07:34:38;10.10;;;3.03;;
75191;SDS011;63771;52.580;9.734;2023-04-25T07:37:04;8.68;;;3.60;;
75191;SDS011;63771;52.580;9.734;2023-04-25T07:39:30;7.90;;;2.47;;
75191;SDS011;63771;52.580;9.734;2023-04-25T07:41:55;5.43;;;1.90;;
75191;SDS011;63771;52.580;9.734;2023-04-25T07:44:23;9.48;;;2.60;;
75191;SDS011;63771;52.580;9.734;2023-04-25T07:46:48;8.30;;;2.47;;
75191;SDS011;63771;52.580;9.734;2023-04-25T07:49:13;7.43;;;2.20;;
75191;SDS011;63771;52.580;9.734;2023-04-25T07:51:39;6.13;;;1.77;;
75191;SDS011;63771;52.580;9.734;2023-04-25T07:54:05;4.68;;;2.25;;
75191;SDS011;63771;52.580;9.734;2023-04-25T07:56:31;8.02;;;2.25;;
75191;SDS011;63771;52.580;9.734;2023-04-25T07:58:57;4.18;;;2.30;;
75191;SDS011;63771;52.580;9.734;2023-04-25T08:01:22;2.28;;;2.08;;
75191;SDS011;63771;52.580;9.734;2023-04-25T08:03:48;6.32;;;2.58;;
75191;SDS011;63771;52.580;9.734;2023-04-25T08:06:13;6.23;;;2.53;;
75191;SDS011;63771;52.580;9.734;2023-04-25T08:08:38;5.82;;;2.13;;
75191;SDS011;63771;52.580;9.734;2023-04-25T08:11:04;6.83;;;2.10;;
75191;SDS011;63771;52.580;9.734;2023-04-25T08:13:29;3.30;;;1.70;;
75191;SDS011;63771;52.580;9.734;2023-04-25T08:15:54;13.50;;;2.47;;
75191;SDS011;63771;52.580;9.734;2023-04-25T08:18:20;4.50;;;1.90;;
75191;SDS011;63771;52.580;9.734;2023-04-25T08:20:45;10.30;;;2.80;;
75191;SDS011;63771;52.580;9.734;2023-04-25T08:23:10;2.58;;;1.58;;
75191;SDS011;63771;52.580;9.734;2023-04-25T08:25:36;8.20;;;1.67;;
75191;SDS011;63771;52.580;9.734;2023-04-25T08:28:01;7.55;;;1.80;;
75191;SDS011;63771;52.580;9.734;2023-04-25T08:30:28;3.63;;;2.05;;
75191;SDS011;63771;52.580;9.734;2023-04-25T08:32:53;5.35;;;1.58;;
75191;SDS011;63771;52.580;9.734;2023-04-25T08:35:19;5.82;;;2.42;;
75191;SDS011;63771;52.580;9.734;2023-04-25T08:37:45;8.13;;;2.38;;
75191;SDS011;63771;52.580;9.734;2023-04-25T08:40:11;8.07;;;1.85;;
75191;SDS011;63771;52.580;9.734;2023-04-25T08:42:39;6.18;;;3.05;;
75191;SDS011;63771;52.580;9.734;2023-04-25T08:45:06;4.53;;;2.00;;
75191;SDS011;63771;52.580;9.734;2023-04-25T08:47:33;4.05;;;1.70;;
75191;SDS011;63771;52.580;9.734;2023-04-25T08:49:59;4.65;;;1.88;;
75191;SDS011;63771;52.580;9.734;2023-04-25T08:52:28;5.40;;;2.70;;
75191;SDS011;63771;52.580;9.734;2023-04-25T08:54:57;9.65;;;1.95;;
75191;SDS011;63771;52.580;9.734;2023-04-25T08:57:25;6.32;;;1.75;;
75191;SDS011;63771;52.580;9.734;2023-04-25T08:59:51;5.60;;;2.00;;
75191;SDS011;63771;52.580;9.734;2023-04-25T09:02:17;3.35;;;1.85;;
75191;SDS011;63771;52.580;9.734;2023-04-25T09:04:45;2.42;;;2.05;;
75191;SDS011;63771;52.580;9.734;2023-04-25T09:07:11;8.23;;;1.85;;
75191;SDS011;63771;52.580;9.734;2023-04-25T09:09:36;3.33;;;1.80;;
75191;SDS011;63771;52.580;9.734;2023-04-25T09:12:02;4.10;;;2.20;;
75191;SDS011;63771;52.580;9.734;2023-04-25T09:14:27;6.25;;;1.92;;
75191;SDS011;63771;52.580;9.734;2023-04-25T09:19:25;4.70;;;2.00;;
75191;SDS011;63771;52.580;9.734;2023-04-25T09:21:50;3.85;;;1.90;;
75191;SDS011;63771;52.580;9.734;2023-04-25T09:24:28;2.50;;;1.50;;
75191;SDS011;63771;52.580;9.734;2023-04-25T09:26:57;3.00;;;1.40;;
75191;SDS011;63771;52.580;9.734;2023-04-25T09:29:29;3.03;;;2.05;;
75191;SDS011;63771;52.580;9.734;2023-04-25T09:32:41;4.85;;;1.25;;
75191;SDS011;63771;52.580;9.734;2023-04-25T09:34:50;3.00;;;1.40;;
75191;SDS011;63771;52.580;9.734;2023-04-25T09:37:26;4.20;;;1.67;;
75191;SDS011;63771;52.580;9.734;2023-04-25T09:39:57;3.63;;;2.15;;
75191;SDS011;63771;52.580;9.734;2023-04-25T09:42:30;4.10;;;1.83;;
75191;SDS011;63771;52.580;9.734;2023-04-25T09:44:59;2.38;;;1.95;;
75191;SDS011;63771;52.580;9.734;2023-04-25T09:47:26;9.35;;;1.65;;
75191;SDS011;63771;52.580;9.734;2023-04-25T09:49:53;1.13;;;1.13;;
75191;SDS011;63771;52.580;9.734;2023-04-25T09:52:20;3.38;;;1.25;;
75191;SDS011;63771;52.580;9.734;2023-04-25T09:54:47;2.67;;;1.42;;
75191;SDS011;63771;52.580;9.734;2023-04-25T09:57:20;9.65;;;2.05;;
75191;SDS011;63771;52.580;9.734;2023-04-25T09:59:52;2.53;;;1.42;;
75191;SDS011;63771;52.580;9.734;2023-04-25T10:02:20;5.82;;;1.52;;
75191;SDS011;63771;52.580;9.734;2023-04-25T10:04:53;4.43;;;1.27;;
75191;SDS011;63771;52.580;9.734;2023-04-25T10:07:23;3.42;;;1.50;;
75191;SDS011;63771;52.580;9.734;2023-04-25T10:10:00;4.50;;;1.73;;
75191;SDS011;63771;52.580;9.734;2023-04-25T10:12:28;2.70;;;1.50;;
75191;SDS011;63771;52.580;9.734;2023-04-25T10:14:54;6.00;;;1.90;;
75191;SDS011;63771;52.580;9.734;2023-04-25T10:17:20;4.13;;;1.80;;
75191;SDS011;63771;52.580;9.734;2023-04-25T10:19:46;6.85;;;2.40;;
75191;SDS011;63771;52.580;9.734;2023-04-25T10:22:20;1.45;;;1.30;;
75191;SDS011;63771;52.580;9.734;2023-04-25T10:24:58;4.25;;;1.35;;
75191;SDS011;63771;52.580;9.734;2023-04-25T10:27:27;8.32;;;2.35;;
75191;SDS011;63771;52.580;9.734;2023-04-25T10:32:41;2.42;;;1.55;;
75191;SDS011;63771;52.580;9.734;2023-04-25T10:35:15;3.80;;;1.50;;
75191;SDS011;63771;52.580;9.734;2023-04-25T10:37:57;5.30;;;1.85;;
75191;SDS011;63771;52.580;9.734;2023-04-25T10:40:32;2.35;;;1.98;;
75191;SDS011;63771;52.580;9.734;2023-04-25T10:43:43;7.00;;;2.22;;
75191;SDS011;63771;52.580;9.734;2023-04-25T10:45:55;3.28;;;1.60;;
75191;SDS011;63771;52.580;9.734;2023-04-25T10:48:24;2.53;;;1.23;;
75191;SDS011;63771;52.580;9.734;2023-04-25T10:50:59;4.35;;;1.85;;
75191;SDS011;63771;52.580;9.734;2023-04-25T10:53:33;7.00;;;1.85;;
75191;SDS011;63771;52.580;9.734;2023-04-25T10:55:59;3.60;;;2.03;;
75191;SDS011;63771;52.580;9.734;2023-04-25T10:58:24;3.63;;;1.33;;
75191;SDS011;63771;52.580;9.734;2023-04-25T11:00:51;3.95;;;2.28;;
75191;SDS011;63771;52.580;9.734;2023-04-25T11:03:17;1.85;;;1.25;;
75191;SDS011;63771;52.580;9.734;2023-04-25T11:05:42;3.05;;;1.58;;
75191;SDS011;63771;52.580;9.734;2023-04-25T11:08:12;2.08;;;1.33;;
75191;SDS011;63771;52.580;9.734;2023-04-25T11:10:42;2.22;;;1.40;;
75191;SDS011;63771;52.580;9.734;2023-04-25T11:13:09;6.85;;;1.20;;
75191;SDS011;63771;52.580;9.734;2023-04-25T11:15:34;6.03;;;1.53;;
75191;SDS011;63771;52.580;9.734;2023-04-25T11:17:59;2.80;;;1.23;;
75191;SDS011;63771;52.580;9.734;2023-04-25T11:20:25;3.45;;;1.20;;
75191;SDS011;63771;52.580;9.734;2023-04-25T11:22:53;2.13;;;1.30;;
75191;SDS011;63771;52.580;9.734;2023-04-25T11:25:18;2.50;;;1.13;;
75191;SDS011;63771;52.580;9.734;2023-04-25T11:27:54;2.70;;;1.63;;
75191;SDS011;63771;52.580;9.734;2023-04-25T11:32:51;2.88;;;1.35;;
75191;SDS011;63771;52.580;9.734;2023-04-25T11:35:18;5.53;;;1.50;;
75191;SDS011;63771;52.580;9.734;2023-04-25T11:37:44;2.03;;;1.48;;
75191;SDS011;63771;52.580;9.734;2023-04-25T11:40:12;2.40;;;1.08;;
75191;SDS011;63771;52.580;9.734;2023-04-25T11:42:37;2.65;;;1.30;;
75191;SDS011;63771;52.580;9.734;2023-04-25T11:45:12;4.70;;;1.60;;
75191;SDS011;63771;52.580;9.734;2023-04-25T11:47:38;1.52;;;1.25;;
75191;SDS011;63771;52.580;9.734;2023-04-25T11:50:05;3.55;;;1.27;;
75191;SDS011;63771;52.580;9.734;2023-04-25T11:52:39;1.35;;;1.25;;
75191;SDS011;63771;52.580;9.734;2023-04-25T11:55:17;5.38;;;2.00;;
75191;SDS011;63771;52.580;9.734;2023-04-25T11:57:46;5.45;;;1.77;;
75191;SDS011;63771;52.580;9.734;2023-04-25T12:02:42;3.00;;;1.50;;
75191;SDS011;63771;52.580;9.734;2023-04-25T12:05:09;1.55;;;1.05;;
75191;SDS011;63771;52.580;9.734;2023-04-25T12:07:37;1.33;;;1.30;;
75191;SDS011;63771;52.580;9.734;2023-04-25T12:12:33;4.03;;;1.10;;
75191;SDS011;63771;52.580;9.734;2023-04-25T12:17:44;4.68;;;1.27;;
75191;SDS011;63771;52.580;9.734;2023-04-25T12:20:14;4.32;;;1.40;;
75191;SDS011;63771;52.580;9.734;2023-04-25T12:22:41;4.50;;;1.50;;
75191;SDS011;63771;52.580;9.734;2023-04-25T12:25:12;3.20;;;0.98;;
75191;SDS011;63771;52.580;9.734;2023-04-25T12:27:38;2.25;;;1.00;;
75191;SDS011;63771;52.580;9.734;2023-04-25T12:30:07;6.05;;;1.13;;
75191;SDS011;63771;52.580;9.734;2023-04-25T12:32:33;1.95;;;0.95;;
75191;SDS011;63771;52.580;9.734;2023-04-25T12:34:58;0.85;;;0.77;;
75191;SDS011;63771;52.580;9.734;2023-04-25T12:37:24;4.03;;;0.93;;
75191;SDS011;63771;52.580;9.734;2023-04-25T12:39:49;5.43;;;1.42;;
75191;SDS011;63771;52.580;9.734;2023-04-25T12:42:16;1.30;;;1.20;;
75191;SDS011;63771;52.580;9.734;2023-04-25T12:44:41;2.63;;;1.07;;
75191;SDS011;63771;52.580;9.734;2023-04-25T12:47:06;1.43;;;1.17;;
75191;SDS011;63771;52.580;9.734;2023-04-25T12:49:32;3.15;;;1.13;;
75191;SDS011;63771;52.580;9.734;2023-04-25T12:51:57;3.53;;;1.63;;
75191;SDS011;63771;52.580;9.734;2023-04-25T12:54:23;3.03;;;1.10;;
75191;SDS011;63771;52.580;9.734;2023-04-25T12:56:48;2.92;;;1.10;;
75191;SDS011;63771;52.580;9.734;2023-04-25T12:59:17;6.03;;;1.35;;
75191;SDS011;63771;52.580;9.734;2023-04-25T13:01:43;0.90;;;0.82;;
75191;SDS011;63771;52.580;9.734;2023-04-25T13:04:10;2.00;;;1.00;;
75191;SDS011;63771;52.580;9.734;2023-04-25T13:06:36;2.75;;;1.25;;
75191;SDS011;63771;52.580;9.734;2023-04-25T13:09:01;2.03;;;1.00;;
75191;SDS011;63771;52.580;9.734;2023-04-25T13:11:26;0.98;;;0.85;;
75191;SDS011;63771;52.580;9.734;2023-04-25T13:13:52;2.20;;;1.60;;
75191;SDS011;63771;52.580;9.734;2023-04-25T13:16:17;6.07;;;1.63;;
75191;SDS011;63771;52.580;9.734;2023-04-25T13:18:45;2.05;;;1.13;;
75191;SDS011;63771;52.580;9.734;2023-04-25T13:21:10;4.93;;;1.20;;
75191;SDS011;63771;52.580;9.734;2023-04-25T13:23:36;1.10;;;1.00;;
75191;SDS011;63771;52.580;9.734;2023-04-25T13:26:01;4.75;;;2.00;;
75191;SDS011;63771;52.580;9.734;2023-04-25T13:28:27;1.45;;;1.25;;
75191;SDS011;63771;52.580;9.734;2023-04-25T13:30:53;3.15;;;1.15;;
75191;SDS011;63771;52.580;9.734;2023-04-25T13:33:19;1.10;;;1.10;;
75191;SDS011;63771;52.580;9.734;2023-04-25T13:35:45;2.15;;;1.17;;
75191;SDS011;63771;52.580;9.734;2023-04-25T13:38:12;3.85;;;1.27;;
75191;SDS011;63771;52.580;9.734;2023-04-25T13:40:38;1.05;;;1.00;;
75191;SDS011;63771;52.580;9.734;2023-04-25T13:43:04;2.78;;;1.02;;
75191;SDS011;63771;52.580;9.734;2023-04-25T13:45:31;1.98;;;1.10;;
75191;SDS011;63771;52.580;9.734;2023-04-25T13:47:56;3.93;;;1.37;;
75191;SDS011;63771;52.580;9.734;2023-04-25T13:50:22;1.90;;;1.07;;
75191;SDS011;63771;52.580;9.734;2023-04-25T13:52:47;4.50;;;0.93;;
75191;SDS011;63771;52.580;9.734;2023-04-25T13:55:12;2.83;;;1.25;;
75191;SDS011;63771;52.580;9.734;2023-04-25T13:57:38;2.33;;;1.47;;
75191;SDS011;63771;52.580;9.734;2023-04-25T14:00:03;1.43;;;0.80;;
75191;SDS011;63771;52.580;9.734;2023-04-25T14:02:34;1.10;;;1.00;;
75191;SDS011;63771;52.580;9.734;2023-04-25T14:04:59;3.20;;;1.48;;
75191;SDS011;63771;52.580;9.734;2023-04-25T14:07:25;5.10;;;1.23;;
75191;SDS011;63771;52.580;9.734;2023-04-25T14:09:51;3.88;;;1.38;;
75191;SDS011;63771;52.580;9.734;2023-04-25T14:12:16;3.07;;;1.50;;
75191;SDS011;63771;52.580;9.734;2023-04-25T14:14:41;1.77;;;1.63;;
75191;SDS011;63771;52.580;9.734;2023-04-25T14:17:08;1.92;;;1.10;;
75191;SDS011;63771;52.580;9.734;2023-04-25T14:19:33;2.88;;;1.20;;
75191;SDS011;63771;52.580;9.734;2023-04-25T14:21:59;3.20;;;1.40;;
75191;SDS011;63771;52.580;9.734;2023-04-25T14:24:24;3.80;;;1.27;;
75191;SDS011;63771;52.580;9.734;2023-04-25T14:26:50;4.57;;;1.40;;
75191;SDS011;63771;52.580;9.734;2023-04-25T14:29:15;1.85;;;1.73;;
75191;SDS011;63771;52.580;9.734;2023-04-25T14:31:41;1.40;;;1.25;;
75191;SDS011;63771;52.580;9.734;2023-04-25T14:34:06;1.50;;;1.40;;
75191;SDS011;63771;52.580;9.734;2023-04-25T14:36:32;1.75;;;0.98;;
75191;SDS011;63771;52.580;9.734;2023-04-25T14:38:58;1.98;;;1.80;;
75191;SDS011;63771;52.580;9.734;2023-04-25T14:41:24;3.17;;;1.25;;
75191;SDS011;63771;52.580;9.734;2023-04-25T14:43:50;1.27;;;1.17;;
75191;SDS011;63771;52.580;9.734;2023-04-25T14:46:15;2.20;;;1.30;;
75191;SDS011;63771;52.580;9.734;2023-04-25T14:48:41;4.25;;;1.20;;
75191;SDS011;63771;52.580;9.734;2023-04-25T14:51:07;1.63;;;1.30;;
75191;SDS011;63771;52.580;9.734;2023-04-25T14:53:32;1.87;;;1.40;;